Plymouth, MN (55446)

7:51 PM CDT on April 19, 2015 (GMT -0500)
Vicksburg | | Change Station
CLOSE
Current Station
Personal Weather Station
Location: Plymouth, MN
Elevation: 1008 ft
Nearby Weather Stations

Elev 1008 ft 45.02 °N, 93.49 °W | Updated 1 minute ago

Overcast
Overcast
48.4 °F
Feels Like 48 °F
N
0.0
Wind Variable Wind from North
Gusts 0.0 mph

Today
High -- | Low -- °F
--% Chance of Precip.
Yesterday
High -- | Low -- °F
Precip. -- in
6:22 AM 8:04 PM
New Moon, 2% visible
Pressure 29.61 in
Visibility 10.0 miles
Clouds Overcast 2500 ft
Windchill 48 °F
Dew Point 36 °F
Humidity 62%
Rainfall 0.00 in
Snow Depth Not available.
UV 0 out of 12
Pollen 2.00 out of 12
Air Quality Not available.
Flu Activity Local Activity
METAR KMIC 192353Z 31009KT 10SM -RA OVC025 10/07 A2960 RMK AO2 SLP027 P0002 60002 T01000067 10156 20100 53004

More Conditions Fewer Conditions

Pressure 29.61 in
Visibility 10.0 miles
Clouds Overcast 2500 ft
Windchill 48 °F
Dew Point 36 °F
Humidity 62%
Rainfall 0.00 in
Snow Depth Not available.
UV 0 out of 12
Pollen 2.00 out of 12
Air Quality Not available.
Flu Activity Local Activity
METAR KMIC 192353Z 31009KT 10SM -RA OVC025 10/07 A2960 RMK AO2 SLP027 P0002 60002 T01000067 10156 20100 53004

More Conditions Fewer Conditions

Nowcast | as of 5:35 PM CDT on April 19, 2015

Scattered light rain or sprinkles will continue across portions of east central...and south central Minnesota...into the 6 PM hour. Most of the activity will remain east of a line...from Princeton to Glencoe...to Trimont. All of the precipitation is trekking north northeast at 15 mph. Rainfall amounts will mainly average between a few hundredths...to near one tenth of an inch prior to 730 PM. A few scattered locations may pick up as much as two tenths of an inch. Much of this activity will either dissipate ...Or move out of the region by late this evening.

×

10-Day Weather Forecast

Almanac

Astronomy

Apr. 19, 2015 Rise Set
Actual Time
Civil Twilight
Nautical Twilight
Astronomical Twilight
Moon
Length of Visible Light
Length of Day
Tomorrow will be .
, % of the Moon is Illuminated

Today's Extremes

State Highs State Lows

Community

WunderPhotos

Upload Photos

1,815,065 photos uploaded!

WunderBlogs® & News

Nearby

Air Quality

  Air Quality AQ Index Pollutant
Not available.

Snow Depth

Station Depth Elevation

Earthquake Activity

City Distance Mag. Time & Date
Minimum magnitude displayed is 2.5.

Coastal Water Temperatures

Place Temperature

Stations

Nearby Weather Stations

Station Location Temp. Windchill Dew Point Humidity Wind Precip. Elev Updated Type